sensor_id;sensor_type;location;lat;lon;timestamp;pressure;altitude;pressure_sealevel;temperature;humidity
63111;BME280;49201;53.426;10.300;2023-02-02T00:01:49;101056.44;;;5.74;100.00
63111;BME280;49201;53.426;10.300;2023-02-02T00:04:26;101055.66;;;5.75;100.00
63111;BME280;49201;53.426;10.300;2023-02-02T00:06:52;101073.44;;;5.75;100.00
63111;BME280;49201;53.426;10.300;2023-02-02T00:09:19;101078.53;;;5.75;100.00
63111;BME280;49201;53.426;10.300;2023-02-02T00:11:47;101075.09;;;5.74;100.00
63111;BME280;49201;53.426;10.300;2023-02-02T00:14:13;101077.72;;;5.76;100.00
63111;BME280;49201;53.426;10.300;2023-02-02T00:16:46;101070.16;;;5.77;100.00
63111;BME280;49201;53.426;10.300;2023-02-02T00:21:43;101080.53;;;5.82;100.00
63111;BME280;49201;53.426;10.300;2023-02-02T00:24:10;101072.09;;;5.83;100.00
63111;BME280;49201;53.426;10.300;2023-02-02T00:26:36;101069.69;;;5.86;100.00
63111;BME280;49201;53.426;10.300;2023-02-02T00:29:03;101080.84;;;5.89;100.00
63111;BME280;49201;53.426;10.300;2023-02-02T00:31:29;101073.22;;;5.89;100.00
63111;BME280;49201;53.426;10.300;2023-02-02T00:33:54;101071.63;;;5.91;100.00
63111;BME280;49201;53.426;10.300;2023-02-02T00:36:20;101091.22;;;5.94;100.00
63111;BME280;49201;53.426;10.300;2023-02-02T00:38:47;101083.59;;;5.94;100.00
63111;BME280;49201;53.426;10.300;2023-02-02T00:41:13;101099.59;;;5.91;100.00
63111;BME280;49201;53.426;10.300;2023-02-02T00:43:39;101099.63;;;5.93;100.00
63111;BME280;49201;53.426;10.300;2023-02-02T00:46:05;101097.81;;;5.90;100.00
63111;BME280;49201;53.426;10.300;2023-02-02T00:48:33;101107.94;;;5.89;100.00
63111;BME280;49201;53.426;10.300;2023-02-02T00:50:59;101113.03;;;5.89;100.00
63111;BME280;49201;53.426;10.300;2023-02-02T00:53:27;101104.47;;;5.87;100.00
63111;BME280;49201;53.426;10.300;2023-02-02T00:55:52;101115.44;;;5.86;100.00
63111;BME280;49201;53.426;10.300;2023-02-02T00:58:17;101112.81;;;5.84;100.00
63111;BME280;49201;53.426;10.300;2023-02-02T01:00:43;101126.41;;;5.85;100.00
63111;BME280;49201;53.426;10.300;2023-02-02T01:03:08;101127.25;;;5.85;100.00
63111;BME280;49201;53.426;10.300;2023-02-02T01:05:34;101138.16;;;5.83;100.00
63111;BME280;49201;53.426;10.300;2023-02-02T01:07:59;101142.47;;;5.84;100.00
63111;BME280;49201;53.426;10.300;2023-02-02T01:10:25;101137.25;;;5.81;100.00
63111;BME280;49201;53.426;10.300;2023-02-02T01:12:51;101144.88;;;5.81;100.00
63111;BME280;49201;53.426;10.300;2023-02-02T01:15:16;101149.06;;;5.80;100.00
63111;BME280;49201;53.426;10.300;2023-02-02T01:17:42;101150.66;;;5.78;100.00
63111;BME280;49201;53.426;10.300;2023-02-02T01:20:10;101148.03;;;5.77;100.00
63111;BME280;49201;53.426;10.300;2023-02-02T01:22:39;101153.72;;;5.71;100.00
63111;BME280;49201;53.426;10.300;2023-02-02T01:25:05;101154.53;;;5.70;100.00
63111;BME280;49201;53.426;10.300;2023-02-02T01:27:30;101157.00;;;5.69;100.00
63111;BME280;49201;53.426;10.300;2023-02-02T01:29:55;101166.31;;;5.68;100.00
63111;BME280;49201;53.426;10.300;2023-02-02T01:32:21;101168.69;;;5.65;100.00
63111;BME280;49201;53.426;10.300;2023-02-02T01:34:46;101167.81;;;5.65;100.00
63111;BME280;49201;53.426;10.300;2023-02-02T01:37:12;101169.50;;;5.64;100.00
63111;BME280;49201;53.426;10.300;2023-02-02T01:39:37;101173.78;;;5.65;100.00
63111;BME280;49201;53.426;10.300;2023-02-02T01:42:11;101184.00;;;5.67;100.00
63111;BME280;49201;53.426;10.300;2023-02-02T01:47:18;101186.47;;;5.65;100.00
63111;BME280;49201;53.426;10.300;2023-02-02T01:49:45;101185.59;;;5.65;100.00
63111;BME280;49201;53.426;10.300;2023-02-02T01:52:14;101193.16;;;5.63;100.00
63111;BME280;49201;53.426;10.300;2023-02-02T01:54:48;101207.69;;;5.66;100.00
63111;BME280;49201;53.426;10.300;2023-02-02T01:57:45;101188.28;;;5.68;100.00
63111;BME280;49201;53.426;10.300;2023-02-02T02:00:14;101218.09;;;5.72;100.00
63111;BME280;49201;53.426;10.300;2023-02-02T02:02:44;101199.44;;;5.71;100.00
63111;BME280;49201;53.426;10.300;2023-02-02T02:05:14;101206.94;;;5.68;100.00
63111;BME280;49201;53.426;10.300;2023-02-02T02:07:43;101208.53;;;5.66;100.00
63111;BME280;49201;53.426;10.300;2023-02-02T02:10:10;101220.38;;;5.66;100.00
63111;BME280;49201;53.426;10.300;2023-02-02T02:12:35;101219.34;;;5.62;100.00
63111;BME280;49201;53.426;10.300;2023-02-02T02:15:02;101227.59;;;5.57;100.00
63111;BME280;49201;53.426;10.300;2023-02-02T02:18:11;101230.97;;;5.57;100.00
63111;BME280;49201;53.426;10.300;2023-02-02T02:35:11;101266.69;;;5.60;100.00
63111;BME280;49201;53.426;10.300;2023-02-02T02:37:56;101257.91;;;5.54;100.00
63111;BME280;49201;53.426;10.300;2023-02-02T02:40:28;101271.41;;;5.53;100.00
63111;BME280;49201;53.426;10.300;2023-02-02T02:43:04;101278.94;;;5.51;100.00
63111;BME280;49201;53.426;10.300;2023-02-02T02:45:32;101272.06;;;5.49;100.00
63111;BME280;49201;53.426;10.300;2023-02-02T02:47:58;101275.25;;;5.45;100.00
63111;BME280;49201;53.426;10.300;2023-02-02T02:50:25;101274.19;;;5.40;100.00
63111;BME280;49201;53.426;10.300;2023-02-02T02:52:59;101280.63;;;5.33;100.00
63111;BME280;49201;53.426;10.300;2023-02-02T02:55:35;101281.28;;;5.29;100.00
63111;BME280;49201;53.426;10.300;2023-02-02T02:58:08;101286.28;;;5.28;100.00
63111;BME280;49201;53.426;10.300;2023-02-02T03:11:26;101279.84;;;5.17;100.00
63111;BME280;49201;53.426;10.300;2023-02-02T03:13:51;101295.16;;;5.18;100.00
63111;BME280;49201;53.426;10.300;2023-02-02T03:16:17;101295.94;;;5.17;100.00
63111;BME280;49201;53.426;10.300;2023-02-02T03:18:43;101299.56;;;5.22;100.00
63111;BME280;49201;53.426;10.300;2023-02-02T03:21:09;101305.59;;;5.24;100.00
63111;BME280;49201;53.426;10.300;2023-02-02T03:23:35;101315.88;;;5.27;100.00
63111;BME280;49201;53.426;10.300;2023-02-02T03:26:00;101314.09;;;5.25;100.00
63111;BME280;49201;53.426;10.300;2023-02-02T03:28:26;101319.25;;;5.26;100.00
63111;BME280;49201;53.426;10.300;2023-02-02T03:30:52;101325.25;;;5.28;100.00
63111;BME280;49201;53.426;10.300;2023-02-02T03:33:19;101317.78;;;5.31;100.00
63111;BME280;49201;53.426;10.300;2023-02-02T03:35:45;101318.88;;;5.36;100.00
63111;BME280;49201;53.426;10.300;2023-02-02T03:38:10;101324.16;;;5.41;100.00
63111;BME280;49201;53.426;10.300;2023-02-02T03:40:37;101329.47;;;5.45;100.00
63111;BME280;49201;53.426;10.300;2023-02-02T03:43:02;101324.50;;;5.48;100.00
63111;BME280;49201;53.426;10.300;2023-02-02T03:45:29;101328.81;;;5.49;100.00
63111;BME280;49201;53.426;10.300;2023-02-02T03:47:54;101334.66;;;5.48;100.00
63111;BME280;49201;53.426;10.300;2023-02-02T03:50:20;101341.56;;;5.51;100.00
63111;BME280;49201;53.426;10.300;2023-02-02T03:52:46;101350.06;;;5.51;100.00
63111;BME280;49201;53.426;10.300;2023-02-02T03:55:11;101359.50;;;5.54;100.00
63111;BME280;49201;53.426;10.300;2023-02-02T03:57:36;101357.09;;;5.57;100.00
63111;BME280;49201;53.426;10.300;2023-02-02T04:00:02;101358.75;;;5.56;100.00
63111;BME280;49201;53.426;10.300;2023-02-02T04:02:37;101364.50;;;5.52;100.00
63111;BME280;49201;53.426;10.300;2023-02-02T04:05:03;101372.75;;;5.48;100.00
63111;BME280;49201;53.426;10.300;2023-02-02T04:07:28;101367.38;;;5.42;100.00
63111;BME280;49201;53.426;10.300;2023-02-02T04:09:54;101371.66;;;5.43;100.00
63111;BME280;49201;53.426;10.300;2023-02-02T04:12:19;101382.53;;;5.41;100.00
63111;BME280;49201;53.426;10.300;2023-02-02T04:14:45;101388.50;;;5.41;100.00
63111;BME280;49201;53.426;10.300;2023-02-02T04:17:10;101387.78;;;5.44;100.00
63111;BME280;49201;53.426;10.300;2023-02-02T04:19:36;101397.13;;;5.45;100.00
63111;BME280;49201;53.426;10.300;2023-02-02T04:22:02;101399.47;;;5.40;100.00
63111;BME280;49201;53.426;10.300;2023-02-02T04:24:27;101405.97;;;5.35;100.00
63111;BME280;49201;53.426;10.300;2023-02-02T04:26:53;101403.22;;;5.31;100.00
63111;BME280;49201;53.426;10.300;2023-02-02T04:29:18;101405.66;;;5.29;100.00
63111;BME280;49201;53.426;10.300;2023-02-02T04:31:44;101408.13;;;5.28;100.00
63111;BME280;49201;53.426;10.300;2023-02-02T04:34:09;101402.28;;;5.29;100.00
63111;BME280;49201;53.426;10.300;2023-02-02T04:36:35;101408.22;;;5.29;100.00
63111;BME280;49201;53.426;10.300;2023-02-02T04:39:00;101415.03;;;5.30;100.00
63111;BME280;49201;53.426;10.300;2023-02-02T04:41:25;101421.16;;;5.34;100.00
63111;BME280;49201;53.426;10.300;2023-02-02T04:43:51;101419.47;;;5.34;100.00
63111;BME280;49201;53.426;10.300;2023-02-02T04:46:16;101434.06;;;5.38;100.00
63111;BME280;49201;53.426;10.300;2023-02-02T04:48:42;101432.41;;;5.39;100.00
63111;BME280;49201;53.426;10.300;2023-02-02T04:51:10;101431.44;;;5.37;100.00
63111;BME280;49201;53.426;10.300;2023-02-02T04:53:36;101448.34;;;5.36;100.00
63111;BME280;49201;53.426;10.300;2023-02-02T04:56:13;101458.50;;;5.36;100.00
63111;BME280;49201;53.426;10.300;2023-02-02T04:58:39;101446.28;;;5.29;100.00
63111;BME280;49201;53.426;10.300;2023-02-02T05:03:34;101454.41;;;5.22;100.00
63111;BME280;49201;53.426;10.300;2023-02-02T05:06:03;101459.47;;;5.22;100.00
63111;BME280;49201;53.426;10.300;2023-02-02T05:08:29;101456.16;;;5.23;100.00
63111;BME280;49201;53.426;10.300;2023-02-02T05:10:54;101462.16;;;5.25;100.00
63111;BME280;49201;53.426;10.300;2023-02-02T05:13:20;101462.97;;;5.24;100.00
63111;BME280;49201;53.426;10.300;2023-02-02T05:15:45;101463.69;;;5.22;100.00
63111;BME280;49201;53.426;10.300;2023-02-02T05:18:11;101466.06;;;5.19;100.00
63111;BME280;49201;53.426;10.300;2023-02-02T05:20:36;101460.22;;;5.20;100.00
63111;BME280;49201;53.426;10.300;2023-02-02T05:23:01;101461.84;;;5.19;100.00
63111;BME280;49201;53.426;10.300;2023-02-02T05:25:27;101467.75;;;5.18;100.00
63111;BME280;49201;53.426;10.300;2023-02-02T05:27:52;101462.78;;;5.21;100.00
63111;BME280;49201;53.426;10.300;2023-02-02T05:30:18;101467.09;;;5.22;100.00
63111;BME280;49201;53.426;10.300;2023-02-02T05:32:43;101471.28;;;5.22;100.00
63111;BME280;49201;53.426;10.300;2023-02-02T05:35:09;101468.84;;;5.23;100.00
63111;BME280;49201;53.426;10.300;2023-02-02T05:37:35;101481.53;;;5.23;100.00
63111;BME280;49201;53.426;10.300;2023-02-02T05:40:01;101489.22;;;5.25;100.00
63111;BME280;49201;53.426;10.300;2023-02-02T05:42:26;101496.03;;;5.26;100.00
63111;BME280;49201;53.426;10.300;2023-02-02T05:44:52;101502.69;;;5.24;100.00
63111;BME280;49201;53.426;10.300;2023-02-02T05:47:17;101486.22;;;5.16;100.00
63111;BME280;49201;53.426;10.300;2023-02-02T05:49:43;101495.91;;;5.07;100.00
63111;BME280;49201;53.426;10.300;2023-02-02T05:52:12;101497.25;;;5.00;100.00
63111;BME280;49201;53.426;10.300;2023-02-02T05:54:40;101500.31;;;4.95;100.00
63111;BME280;49201;53.426;10.300;2023-02-02T05:57:05;101495.25;;;4.95;100.00
63111;BME280;49201;53.426;10.300;2023-02-02T05:59:30;101497.78;;;4.95;100.00
63111;BME280;49201;53.426;10.300;2023-02-02T06:01:56;101490.91;;;4.92;100.00
63111;BME280;49201;53.426;10.300;2023-02-02T06:04:21;101505.19;;;4.90;100.00
63111;BME280;49201;53.426;10.300;2023-02-02T06:06:47;101507.53;;;4.87;100.00
63111;BME280;49201;53.426;10.300;2023-02-02T06:09:12;101507.53;;;4.87;100.00
63111;BME280;49201;53.426;10.300;2023-02-02T06:11:38;101515.06;;;4.86;100.00
63111;BME280;49201;53.426;10.300;2023-02-02T06:14:04;101511.81;;;4.88;100.00
63111;BME280;49201;53.426;10.300;2023-02-02T06:16:30;101510.25;;;4.90;100.00
63111;BME280;49201;53.426;10.300;2023-02-02T06:18:56;101523.34;;;4.98;100.00
63111;BME280;49201;53.426;10.300;2023-02-02T06:21:21;101532.78;;;5.00;100.00
63111;BME280;49201;53.426;10.300;2023-02-02T06:23:49;101532.84;;;5.02;100.00
63111;BME280;49201;53.426;10.300;2023-02-02T06:26:16;101538.16;;;5.06;100.00
63111;BME280;49201;53.426;10.300;2023-02-02T06:28:42;101531.50;;;5.08;100.00
63111;BME280;49201;53.426;10.300;2023-02-02T06:31:11;101542.53;;;5.09;100.00
63111;BME280;49201;53.426;10.300;2023-02-02T06:33:37;101543.41;;;5.09;100.00
63111;BME280;49201;53.426;10.300;2023-02-02T06:36:04;101548.56;;;5.11;100.00
63111;BME280;49201;53.426;10.300;2023-02-02T06:38:30;101548.66;;;5.12;100.00
63111;BME280;49201;53.426;10.300;2023-02-02T06:41:00;101552.03;;;5.13;100.00
63111;BME280;49201;53.426;10.300;2023-02-02T06:43:26;101553.72;;;5.12;100.00
63111;BME280;49201;53.426;10.300;2023-02-02T06:45:52;101559.66;;;5.13;100.00
63111;BME280;49201;53.426;10.300;2023-02-02T06:48:17;101561.34;;;5.12;100.00
63111;BME280;49201;53.426;10.300;2023-02-02T06:50:43;101564.91;;;5.16;100.00
63111;BME280;49201;53.426;10.300;2023-02-02T06:53:08;101563.06;;;5.13;100.00
63111;BME280;49201;53.426;10.300;2023-02-02T06:55:33;101569.72;;;5.11;100.00
63111;BME280;49201;53.426;10.300;2023-02-02T06:57:59;101576.63;;;5.14;100.00
63111;BME280;49201;53.426;10.300;2023-02-02T07:00:28;101576.00;;;5.18;100.00
63111;BME280;49201;53.426;10.300;2023-02-02T07:02:54;101580.34;;;5.20;100.00
63111;BME280;49201;53.426;10.300;2023-02-02T07:05:20;101576.16;;;5.21;100.00
63111;BME280;49201;53.426;10.300;2023-02-02T07:07:49;101579.63;;;5.23;100.00
63111;BME280;49201;53.426;10.300;2023-02-02T07:10:15;101597.50;;;5.24;100.00
63111;BME280;49201;53.426;10.300;2023-02-02T07:12:41;101593.38;;;5.26;100.00
63111;BME280;49201;53.426;10.300;2023-02-02T07:15:07;101595.22;;;5.29;100.00
63111;BME280;49201;53.426;10.300;2023-02-02T07:17:32;101593.53;;;5.29;100.00
63111;BME280;49201;53.426;10.300;2023-02-02T07:19:58;101597.88;;;5.32;100.00
63111;BME280;49201;53.426;10.300;2023-02-02T07:22:23;101602.97;;;5.32;100.00
63111;BME280;49201;53.426;10.300;2023-02-02T07:24:49;101607.19;;;5.31;100.00
63111;BME280;49201;53.426;10.300;2023-02-02T07:27:14;101620.59;;;5.29;100.00
63111;BME280;49201;53.426;10.300;2023-02-02T07:29:40;101622.56;;;5.34;100.00
63111;BME280;49201;53.426;10.300;2023-02-02T07:32:05;101624.31;;;5.35;100.00
63111;BME280;49201;53.426;10.300;2023-02-02T07:34:31;101624.38;;;5.37;100.00
63111;BME280;49201;53.426;10.300;2023-02-02T07:36:57;101630.53;;;5.40;100.00
63111;BME280;49201;53.426;10.300;2023-02-02T07:39:22;101631.47;;;5.42;100.00
63111;BME280;49201;53.426;10.300;2023-02-02T07:41:48;101632.50;;;5.46;100.00
63111;BME280;49201;53.426;10.300;2023-02-02T07:44:26;101638.38;;;5.45;100.00
63111;BME280;49201;53.426;10.300;2023-02-02T07:46:52;101636.72;;;5.45;100.00
63111;BME280;49201;53.426;10.300;2023-02-02T07:49:17;101651.06;;;5.45;100.00
63111;BME280;49201;53.426;10.300;2023-02-02T07:51:44;101650.84;;;5.40;100.00
63111;BME280;49201;53.426;10.300;2023-02-02T07:54:12;101655.13;;;5.41;100.00
63111;BME280;49201;53.426;10.300;2023-02-02T07:56:37;101661.94;;;5.42;100.00
63111;BME280;49201;53.426;10.300;2023-02-02T07:59:04;101661.22;;;5.45;100.00
63111;BME280;49201;53.426;10.300;2023-02-02T08:01:29;101669.88;;;5.48;100.00
63111;BME280;49201;53.426;10.300;2023-02-02T08:03:56;101673.38;;;5.50;100.00
63111;BME280;49201;53.426;10.300;2023-02-02T08:06:35;101681.47;;;5.59;100.00
63111;BME280;49201;53.426;10.300;2023-02-02T08:09:04;101682.09;;;5.71;100.00
63111;BME280;49201;53.426;10.300;2023-02-02T08:11:30;101687.22;;;5.87;100.00
63111;BME280;49201;53.426;10.300;2023-02-02T08:13:57;101691.34;;;6.01;100.00
63111;BME280;49201;53.426;10.300;2023-02-02T08:16:25;101688.81;;;6.01;100.00
63111;BME280;49201;53.426;10.300;2023-02-02T08:18:51;101701.03;;;5.92;100.00
63111;BME280;49201;53.426;10.300;2023-02-02T08:21:17;101696.34;;;6.00;100.00
63111;BME280;49201;53.426;10.300;2023-02-02T08:23:43;101695.06;;;6.08;100.00
63111;BME280;49201;53.426;10.300;2023-02-02T08:26:24;101712.78;;;6.06;100.00
63111;BME280;49201;53.426;10.300;2023-02-02T08:28:52;101719.44;;;6.04;100.00
63111;BME280;49201;53.426;10.300;2023-02-02T08:31:33;101709.81;;;6.15;100.00
63111;BME280;49201;53.426;10.300;2023-02-02T08:33:59;101724.88;;;6.10;100.00
63111;BME280;49201;53.426;10.300;2023-02-02T08:36:26;101727.50;;;6.12;100.00
63111;BME280;49201;53.426;10.300;2023-02-02T08:38:52;101727.44;;;6.28;100.00
63111;BME280;49201;53.426;10.300;2023-02-02T08:41:20;101731.00;;;6.31;100.00
63111;BME280;49201;53.426;10.300;2023-02-02T08:43:46;101735.63;;;6.38;100.00
63111;BME280;49201;53.426;10.300;2023-02-02T08:46:12;101738.91;;;6.36;100.00
63111;BME280;49201;53.426;10.300;2023-02-02T08:48:38;101738.16;;;6.38;100.00
63111;BME280;49201;53.426;10.300;2023-02-02T08:51:05;101733.00;;;6.37;100.00
63111;BME280;49201;53.426;10.300;2023-02-02T08:53:31;101743.09;;;6.35;100.00
63111;BME280;49201;53.426;10.300;2023-02-02T08:56:01;101745.25;;;6.44;100.00
63111;BME280;49201;53.426;10.300;2023-02-02T08:58:28;101749.53;;;6.29;100.00
63111;BME280;49201;53.426;10.300;2023-02-02T09:00:53;101745.53;;;6.50;100.00
63111;BME280;49201;53.426;10.300;2023-02-02T09:03:19;101754.22;;;6.71;100.00
63111;BME280;49201;53.426;10.300;2023-02-02T09:05:44;101755.47;;;6.96;100.00
63111;BME280;49201;53.426;10.300;2023-02-02T09:08:10;101760.88;;;7.20;100.00
63111;BME280;49201;53.426;10.300;2023-02-02T09:10:36;101759.25;;;7.57;100.00
63111;BME280;49201;53.426;10.300;2023-02-02T09:13:02;101755.50;;;9.04;100.00
63111;BME280;49201;53.426;10.300;2023-02-02T09:15:29;101757.78;;;10.53;100.00
63111;BME280;49201;53.426;10.300;2023-02-02T09:17:55;101757.63;;;11.53;100.00
63111;BME280;49201;53.426;10.300;2023-02-02T09:20:20;101761.84;;;12.38;100.00
63111;BME280;49201;53.426;10.300;2023-02-02T09:22:46;101763.53;;;13.03;99.80
63111;BME280;49201;53.426;10.300;2023-02-02T09:25:12;101769.03;;;13.54;92.99
63111;BME280;49201;53.426;10.300;2023-02-02T09:27:38;101770.59;;;13.47;93.29
63111;BME280;49201;53.426;10.300;2023-02-02T09:30:07;101771.81;;;13.63;90.61
63111;BME280;49201;53.426;10.300;2023-02-02T09:32:34;101772.97;;;14.18;88.04
63111;BME280;49201;53.426;10.300;2023-02-02T09:34:59;101766.41;;;14.80;82.04
63111;BME280;49201;53.426;10.300;2023-02-02T09:37:27;101790.91;;;13.74;85.86
63111;BME280;49201;53.426;10.300;2023-02-02T09:39:53;101797.78;;;12.69;94.52
63111;BME280;49201;53.426;10.300;2023-02-02T09:45:00;101818.56;;;10.59;100.00
63111;BME280;49201;53.426;10.300;2023-02-02T09:55:56;101824.78;;;12.54;96.91
63111;BME280;49201;53.426;10.300;2023-02-02T09:58:30;101808.34;;;16.36;68.07
63111;BME280;49201;53.426;10.300;2023-02-02T10:01:30;101816.47;;;16.68;63.83
63111;BME280;49201;53.426;10.300;2023-02-02T10:06:38;101814.34;;;18.76;53.84
63111;BME280;49201;53.426;10.300;2023-02-02T10:14:55;101827.88;;;18.03;56.20
63111;BME280;49201;53.426;10.300;2023-02-02T10:17:47;101826.44;;;19.83;48.64
63111;BME280;49201;53.426;10.300;2023-02-02T10:20:24;101830.78;;;19.86;47.88
63111;BME280;49201;53.426;10.300;2023-02-02T10:23:24;101842.53;;;16.16;56.94
63111;BME280;49201;53.426;10.300;2023-02-02T10:25:55;101857.16;;;11.90;86.21
63111;BME280;49201;53.426;10.300;2023-02-02T10:28:32;101847.41;;;16.59;75.47
63111;BME280;49201;53.426;10.300;2023-02-02T10:31:00;101850.19;;;16.10;61.05
63111;BME280;49201;53.426;10.300;2023-02-02T10:33:37;101866.75;;;12.85;86.17
63111;BME280;49201;53.426;10.300;2023-02-02T10:39:24;101863.25;;;17.95;54.47
63111;BME280;49201;53.426;10.300;2023-02-02T10:42:03;101889.81;;;15.03;68.34
63111;BME280;49201;53.426;10.300;2023-02-02T10:44:52;101894.91;;;11.94;90.55
63111;BME280;49201;53.426;10.300;2023-02-02T10:47:26;101909.50;;;12.82;85.82
63111;BME280;49201;53.426;10.300;2023-02-02T10:50:00;101918.28;;;11.25;98.92
63111;BME280;49201;53.426;10.300;2023-02-02T10:52:32;101923.81;;;13.35;89.32
63111;BME280;49201;53.426;10.300;2023-02-02T10:57:37;101930.28;;;11.02;99.26
63111;BME280;49201;53.426;10.300;2023-02-02T11:00:17;101930.25;;;11.01;100.00
63111;BME280;49201;53.426;10.300;2023-02-02T11:02:46;101921.88;;;12.36;96.78
63111;BME280;49201;53.426;10.300;2023-02-02T11:05:18;101934.22;;;11.66;98.70
63111;BME280;49201;53.426;10.300;2023-02-02T11:08:13;101919.41;;;12.39;96.23
63111;BME280;49201;53.426;10.300;2023-02-02T11:10:41;101936.22;;;12.29;91.95
63111;BME280;49201;53.426;10.300;2023-02-02T11:13:09;101936.69;;;12.16;90.72
63111;BME280;49201;53.426;10.300;2023-02-02T11:15:37;101936.66;;;11.62;96.95
63111;BME280;49201;53.426;10.300;2023-02-02T11:18:31;101944.06;;;10.59;99.01
63111;BME280;49201;53.426;10.300;2023-02-02T11:20:57;101953.56;;;10.17;100.00
63111;BME280;49201;53.426;10.300;2023-02-02T11:23:25;101953.81;;;10.03;100.00
63111;BME280;49201;53.426;10.300;2023-02-02T11:25:57;101943.09;;;10.11;100.00
63111;BME280;49201;53.426;10.300;2023-02-02T11:28:24;101946.28;;;9.65;100.00
63111;BME280;49201;53.426;10.300;2023-02-02T11:30:55;101949.09;;;9.50;100.00
63111;BME280;49201;53.426;10.300;2023-02-02T11:33:35;101937.34;;;12.11;100.00
63111;BME280;49201;53.426;10.300;2023-02-02T11:36:06;101941.53;;;10.15;100.00
63111;BME280;49201;53.426;10.300;2023-02-02T11:38:41;101950.22;;;9.57;100.00
63111;BME280;49201;53.426;10.300;2023-02-02T11:41:07;101948.44;;;10.17;100.00
63111;BME280;49201;53.426;10.300;2023-02-02T11:43:52;101948.84;;;9.85;100.00
63111;BME280;49201;53.426;10.300;2023-02-02T11:46:26;101954.78;;;9.84;100.00
63111;BME280;49201;53.426;10.300;2023-02-02T11:49:00;101945.28;;;10.02;100.00
63111;BME280;49201;53.426;10.300;2023-02-02T11:51:28;101946.13;;;9.40;100.00
63111;BME280;49201;53.426;10.300;2023-02-02T11:54:02;101955.53;;;9.82;100.00
63111;BME280;49201;53.426;10.300;2023-02-02T11:56:34;101941.25;;;13.14;95.12
63111;BME280;49201;53.426;10.300;2023-02-02T11:59:01;101951.03;;;12.10;84.40
63111;BME280;49201;53.426;10.300;2023-02-02T12:01:34;101948.06;;;12.24;91.86
63111;BME280;49201;53.426;10.300;2023-02-02T12:04:01;101952.94;;;11.64;93.52
63111;BME280;49201;53.426;10.300;2023-02-02T12:06:37;101941.25;;;14.54;78.08
63111;BME280;49201;53.426;10.300;2023-02-02T12:09:12;101931.09;;;17.41;58.05
63111;BME280;49201;53.426;10.300;2023-02-02T12:12:02;101946.75;;;12.96;78.66
63111;BME280;49201;53.426;10.300;2023-02-02T12:30:40;101952.84;;;17.63;47.78
63111;BME280;49201;53.426;10.300;2023-02-02T12:33:20;101940.81;;;19.86;44.25
63111;BME280;49201;53.426;10.300;2023-02-02T12:36:09;101938.06;;;20.67;41.60
63111;BME280;49201;53.426;10.300;2023-02-02T12:41:42;101951.53;;;18.11;46.53
63111;BME280;49201;53.426;10.300;2023-02-02T12:44:25;101964.00;;;15.61;
63111;BME280;49201;53.426;10.300;2023-02-02T12:49:51;101972.09;;;14.13;71.92
63111;BME280;49201;53.426;10.300;2023-02-02T12:52:54;101969.50;;;15.34;65.57
63111;BME280;49201;53.426;10.300;2023-02-02T12:55:27;101974.34;;;14.36;74.58
63111;BME280;49201;53.426;10.300;2023-02-02T13:01:12;101980.72;;;12.28;80.24
63111;BME280;49201;53.426;10.300;2023-02-02T13:04:02;101967.53;;;15.21;67.68
63111;BME280;49201;53.426;10.300;2023-02-02T13:09:13;101976.63;;;13.55;74.36
63111;BME280;49201;53.426;10.300;2023-02-02T13:11:51;101984.03;;;12.52;78.16
63111;BME280;49201;53.426;10.300;2023-02-02T13:14:49;101982.31;;;11.98;84.90
63111;BME280;49201;53.426;10.300;2023-02-02T13:17:26;101990.53;;;11.38;89.52
63111;BME280;49201;53.426;10.300;2023-02-02T13:19:57;101978.31;;;12.62;80.62
63111;BME280;49201;53.426;10.300;2023-02-02T13:22:28;101984.16;;;14.15;74.27
63111;BME280;49201;53.426;10.300;2023-02-02T13:25:00;101977.34;;;14.94;67.68
63111;BME280;49201;53.426;10.300;2023-02-02T13:27:28;101982.59;;;15.00;65.02
63111;BME280;49201;53.426;10.300;2023-02-02T13:30:42;101985.91;;;14.93;65.22
63111;BME280;49201;53.426;10.300;2023-02-02T13:32:45;101988.56;;;15.41;62.63
63111;BME280;49201;53.426;10.300;2023-02-02T13:48:35;101989.63;;;16.02;57.30
63111;BME280;49201;53.426;10.300;2023-02-02T13:54:29;101998.13;;;15.45;60.09
63111;BME280;49201;53.426;10.300;2023-02-02T13:57:16;101999.91;;;15.49;59.66
63111;BME280;49201;53.426;10.300;2023-02-02T14:02:51;102006.63;;;15.39;60.01
63111;BME280;49201;53.426;10.300;2023-02-02T14:05:25;102007.38;;;14.92;61.85
63111;BME280;49201;53.426;10.300;2023-02-02T14:08:05;102017.41;;;14.40;64.53
63111;BME280;49201;53.426;10.300;2023-02-02T14:10:42;102015.53;;;13.34;69.19
63111;BME280;49201;53.426;10.300;2023-02-02T14:15:57;102015.75;;;14.42;65.03
63111;BME280;49201;53.426;10.300;2023-02-02T14:31:56;102030.78;;;13.58;66.03
63111;BME280;49201;53.426;10.300;2023-02-02T14:48:25;102051.91;;;11.81;86.37
63111;BME280;49201;53.426;10.300;2023-02-02T14:50:55;102060.44;;;11.80;86.98
63111;BME280;49201;53.426;10.300;2023-02-02T14:53:29;102064.72;;;12.06;84.84
63111;BME280;49201;53.426;10.300;2023-02-02T14:58:29;102070.53;;;11.75;84.87
63111;BME280;49201;53.426;10.300;2023-02-02T15:17:38;102117.22;;;9.56;100.00
63111;BME280;49201;53.426;10.300;2023-02-02T15:23:12;102111.44;;;9.22;100.00
63111;BME280;49201;53.426;10.300;2023-02-02T15:25:45;102124.53;;;9.10;100.00
63111;BME280;49201;53.426;10.300;2023-02-02T15:30:46;102131.13;;;8.88;100.00
63111;BME280;49201;53.426;10.300;2023-02-02T15:33:26;102131.56;;;8.79;100.00